地図

経路データ

SID SEASON NUMBER BASIN SUBBASIN NAME ISO_TIME NATURE LAT LON WMO_WIND WMO_PRES WMO_AGENCY TRACK_TYPE DIST2LAND LANDFALL IFLAG USA_AGENCY USA_ATCF_ID USA_LAT USA_LON USA_RECORD USA_STATUS USA_WIND USA_PRES USA_SSHS USA_R34_NE USA_R34_SE USA_R34_SW USA_R34_NW USA_R50_NE USA_R50_SE USA_R50_SW USA_R50_NW USA_R64_NE USA_R64_SE USA_R64_SW USA_R64_NW USA_POCI USA_ROCI USA_RMW USA_EYE TOKYO_LAT TOKYO_LON TOKYO_GRADE TOKYO_WIND TOKYO_PRES TOKYO_R50_DIR TOKYO_R50_LONG TOKYO_R50_SHORT TOKYO_R30_DIR TOKYO_R30_LONG TOKYO_R30_SHORT TOKYO_LAND CMA_LAT CMA_LON CMA_CAT CMA_WIND CMA_PRES HKO_LAT HKO_LON HKO_CAT HKO_WIND HKO_PRES NEWDELHI_LAT NEWDELHI_LON NEWDELHI_GRADE NEWDELHI_WIND NEWDELHI_PRES NEWDELHI_CI NEWDELHI_DP NEWDELHI_POCI REUNION_LAT REUNION_LON REUNION_TYPE REUNION_WIND REUNION_PRES REUNION_TNUM REUNION_CI REUNION_RMW REUNION_R34_NE REUNION_R34_SE REUNION_R34_SW REUNION_R34_NW REUNION_R50_NE REUNION_R50_SE REUNION_R50_SW REUNION_R50_NW REUNION_R64_NE REUNION_R64_SE REUNION_R64_SW REUNION_R64_NW BOM_LAT BOM_LON BOM_TYPE BOM_WIND BOM_PRES BOM_TNUM BOM_CI BOM_RMW BOM_R34_NE BOM_R34_SE BOM_R34_SW BOM_R34_NW BOM_R50_NE BOM_R50_SE BOM_R50_SW BOM_R50_NW BOM_R64_NE BOM_R64_SE BOM_R64_SW BOM_R64_NW BOM_ROCI BOM_POCI BOM_EYE BOM_POS_METHOD BOM_PRES_METHOD NADI_LAT NADI_LON NADI_CAT NADI_WIND NADI_PRES WELLINGTON_LAT WELLINGTON_LON WELLINGTON_WIND WELLINGTON_PRES DS824_LAT DS824_LON DS824_STAGE DS824_WIND DS824_PRES TD9636_LAT TD9636_LON TD9636_STAGE TD9636_WIND TD9636_PRES TD9635_LAT TD9635_LON TD9635_WIND TD9635_PRES TD9635_ROCI NEUMANN_LAT NEUMANN_LON NEUMANN_CLASS NEUMANN_WIND NEUMANN_PRES MLC_LAT MLC_LON MLC_CLASS MLC_WIND MLC_PRES USA_GUST BOM_GUST BOM_GUST_PER REUNION_GUST REUNION_GUST_PER USA_SEAHGT USA_SEARAD_NE USA_SEARAD_SE USA_SEARAD_SW USA_SEARAD_NW STORM_SPEED STORM_DIR
1999159N18091 1999 36 NI BB NOT_NAMED 1999-06-08 06:00:00 NR 18.5000 91.4000 main 238 238 O_____________ jtwc_io IO031999 18.5000 91.4000 20 -1 2 272
1999159N18091 1999 36 NI BB NOT_NAMED 1999-06-08 09:00:00 NR 18.5025 91.3025 main 245 245 P_____________ IO031999 18.5025 91.3025 22 -1 2 270
1999159N18091 1999 36 NI BB NOT_NAMED 1999-06-08 12:00:00 NR 18.5000 91.2000 main 252 252 O_____________ jtwc_io IO031999 18.5000 91.2000 25 -1 2 267
1999159N18091 1999 36 NI BB NOT_NAMED 1999-06-08 15:00:00 NR 18.4925 91.0925 main 260 260 P_____________ IO031999 18.4925 91.0925 25 -1 2 270
1999159N18091 1999 36 NI BB NOT_NAMED 1999-06-08 18:00:00 NR 18.5000 91.0000 main 267 267 O_____________ jtwc_io IO031999 18.5000 91.0000 25 -1 1 284
1999159N18091 1999 36 NI BB NOT_NAMED 1999-06-08 21:00:00 NR 18.5275 90.9500 main 275 267 P_____________ IO031999 18.5275 90.9500 25 -1 1 317
1999159N18091 1999 36 NI BB NOT_NAMED 1999-06-09 00:00:00 NR 18.6000 90.9000 main 267 260 O_____________ jtwc_io IO031999 18.6000 90.9000 25 -1 2 325
1999159N18091 1999 36 NI BB NOT_NAMED 1999-06-09 03:00:00 NR 18.7275 90.8075 main 267 260 P_____________ IO031999 18.7275 90.8075 25 -1 4 328
1999159N18091 1999 36 NI BB NOT_NAMED 1999-06-09 06:00:00 NR 18.9000 90.7000 main 261 254 O_____________ jtwc_io IO031999 18.9000 90.7000 25 -1 4 331
1999159N18091 1999 36 NI BB NOT_NAMED 1999-06-09 09:00:00 NR 19.0775 90.6000 main 257 251 P_____________ IO031999 19.0775 90.6000 25 -1 4 335
1999159N18091 1999 36 NI BB NOT_NAMED 1999-06-09 12:00:00 NR 19.3000 90.5000 main 252 242 O_____________ jtwc_io IO031999 19.3000 90.5000 25 -1 6 341
1999159N18091 1999 36 NI BB NOT_NAMED 1999-06-09 15:00:00 NR 19.6000 90.4075 main 242 212 P_____________ IO031999 19.6000 90.4075 25 -1 6 342
1999159N18091 1999 36 NI BB NOT_NAMED 1999-06-09 18:00:00 NR 19.9000 90.3000 main 212 190 O_____________ jtwc_io IO031999 19.9000 90.3000 25 -1 6 337
1999159N18091 1999 36 NI BB NOT_NAMED 1999-06-09 21:00:00 NR 20.1150 90.1724 main 190 168 P_____________ IO031999 20.1150 90.1724 25 -1 5 325
1999159N18091 1999 36 NI BB NOT_NAMED 1999-06-10 00:00:00 NR 20.3000 90.0000 main 168 140 O_____________ jtwc_io IO031999 20.3000 90.0000 25 -1 5 318
1999159N18091 1999 36 NI BB NOT_NAMED 1999-06-10 03:00:00 NR 20.4997 89.8098 main 140 108 P_____________ IO031999 20.4997 89.8098 25 -1 6 311
1999159N18091 1999 36 NI BB NOT_NAMED 1999-06-10 06:00:00 NR 20.7000 89.5000 main 108 89 O_____________ jtwc_io IO031999 20.7000 89.5000 25 -1 8 295
1999159N18091 1999 36 NI BB NOT_NAMED 1999-06-10 09:00:00 NR 20.8551 89.0019 main 78 55 P_____________ IO031999 20.8551 89.0019 30 -1 11 291
1999159N18091 1999 36 NI BB NOT_NAMED 1999-06-10 12:00:00 NR 21.1000 88.4000 main 55 23 O_____________ jtwc_io IO031999 21.1000 88.4000 35 0 13 303
1999159N18091 1999 36 NI BB NOT_NAMED 1999-06-10 15:00:00 NR 21.5697 87.8227 main 11 0 P_____________ IO031999 21.5697 87.8227 35 0 15 312
1999159N18091 1999 36 NI BB NOT_NAMED 1999-06-10 18:00:00 NR 22.1000 87.2000 main 0 0 O_____________ jtwc_io IO031999 22.1000 87.2000 35 0 16 307
1999159N18091 1999 36 NI BB NOT_NAMED 1999-06-10 21:00:00 NR 22.5305 86.4478 main 0 0 P_____________ IO031999 22.5305 86.4478 30 -1 15 302
1999159N18091 1999 36 NI BB NOT_NAMED 1999-06-11 00:00:00 NR 22.9000 85.8000 main 0 0 O_____________ jtwc_io IO031999 22.9000 85.8000 25 -1 11 307
1999159N18091 1999 36 NI BB NOT_NAMED 1999-06-11 03:00:00 NR 23.2069 85.4817 main 0 0 P_____________ IO031999 23.2069 85.4817 22 -1 8 323
1999159N18091 1999 36 NI BB NOT_NAMED 1999-06-11 06:00:00 NR 23.5000 85.3000 main 0 0 O_____________ jtwc_io IO031999 23.5000 85.3000 20 -1 7 327
1999159N18091 1999 36 NI BB NOT_NAMED 1999-06-11 09:00:00 NR 23.8350 85.0424 main 0 0 P_____________ IO031999 23.8350 85.0424 20 -1 8 327
1999159N18091 1999 36 NI BB NOT_NAMED 1999-06-11 12:00:00 NR 24.2000 84.8000 main 0 0 O_____________ jtwc_io IO031999 24.2000 84.8000 20 -1 9 331
1999159N18091 1999 36 NI BB NOT_NAMED 1999-06-11 15:00:00 NR 24.5925 84.5902 main 0 0 P_____________ IO031999 24.5925 84.5902 20 -1 9 335
1999159N18091 1999 36 NI BB NOT_NAMED 1999-06-11 18:00:00 NR 25.0000 84.4000 main 0 O_____________ jtwc_io IO031999 25.0000 84.4000 20 -1 9 337

IBTrACS Databaseについて

本データベースは、米国NOAAが公開する1842年以降の世界の熱帯低気圧のベストトラックデータアーカイブInternational Best Track Archive for Climate Stewardship (IBTrACS)を、ウェブで閲覧しやすい形式に変換したものです。

最終更新日:2021-11-26